Ina, Illinois
Current Conditions -  °F | °C
As of 2:35 AM on Wednesday 26 Nov 2014 (Local Time) from KMVN Reporting Station
Clear Clear  
Wind Chill: 21°   Ceiling: Unl
Heat Index: 21°   Visibility: 10mi
Dew Point: 16°   Wind: 0mph
Humidity: 80%   Direction: NA
Pressure: 30.15"   Gusts: NA
Location:  38.15°N, 88.9°W
Report Text: KMVN 260835Z AUTO 00000KT 10SM CLR M06/M09 A3015 RMK AO1
Loading
Personal Weather Stations






























Interactive Weather Map New forecast layout! Learn more

10-Day Weather Forecast

Advertisements
Track Severe Weather on mobile